Terminal Aerodrome Forecast
Issued by NWS

Home | Current Version | Previous Version | Text Only | Print | Product List | Glossary On
Versions: 1 2 3 4 5 6 7 8 9 10 11 12 13 14 15 16 17 18 19 20 21 22 23
000
FTUS42 KFFC 070821 AAA
TAFPDK
TAF AMD
KPDK 070821Z 0708/0806 26004KT 4SM BR FEW200
     FM071600 27006KT P6SM FEW050
     FM080200 26005KT P6SM FEW150=

USA.gov is the U.S. government's official web portal to all federal, state and local government web resources and services.